sensor_id;sensor_type;location;lat;lon;timestamp;pressure;altitude;pressure_sealevel;temperature
73745;BMP280;62053;52.002;5.468;2022-07-29T00:00:10;101797.16;;;29.09
73745;BMP280;62053;52.002;5.468;2022-07-29T00:01:03;101792.44;;;29.10
73745;BMP280;62053;52.002;5.468;2022-07-29T00:01:54;101788.16;;;29.09
73745;BMP280;62053;52.002;5.468;2022-07-29T00:02:47;101795.63;;;29.08
73745;BMP280;62053;52.002;5.468;2022-07-29T00:03:38;101781.16;;;29.08
73745;BMP280;62053;52.002;5.468;2022-07-29T00:04:30;101783.16;;;29.07
73745;BMP280;62053;52.002;5.468;2022-07-29T00:05:24;101788.63;;;29.07
73745;BMP280;62053;52.002;5.468;2022-07-29T00:06:17;101788.63;;;29.07
73745;BMP280;62053;52.002;5.468;2022-07-29T00:07:08;101781.66;;;29.06
73745;BMP280;62053;52.002;5.468;2022-07-29T00:08:00;101783.91;;;29.08
73745;BMP280;62053;52.002;5.468;2022-07-29T00:08:51;101780.91;;;29.06
73745;BMP280;62053;52.002;5.468;2022-07-29T00:09:43;101774.41;;;29.03
73745;BMP280;62053;52.002;5.468;2022-07-29T00:10:35;101778.66;;;29.04
73745;BMP280;62053;52.002;5.468;2022-07-29T00:11:27;101775.91;;;29.04
73745;BMP280;62053;52.002;5.468;2022-07-29T00:12:19;101775.19;;;29.04
73745;BMP280;62053;52.002;5.468;2022-07-29T00:13:12;101775.19;;;29.04
73745;BMP280;62053;52.002;5.468;2022-07-29T00:14:03;101775.91;;;29.04
73745;BMP280;62053;52.002;5.468;2022-07-29T00:14:56;101770.16;;;29.02
73745;BMP280;62053;52.002;5.468;2022-07-29T00:15:48;101765.41;;;29.03
73745;BMP280;62053;52.002;5.468;2022-07-29T00:16:40;101772.13;;;29.02
73745;BMP280;62053;52.002;5.468;2022-07-29T00:17:31;101774.88;;;29.02
73745;BMP280;62053;52.002;5.468;2022-07-29T00:18:25;101771.88;;;29.00
73745;BMP280;62053;52.002;5.468;2022-07-29T00:19:16;101767.16;;;29.00
73745;BMP280;62053;52.002;5.468;2022-07-29T00:20:09;101771.88;;;29.00
73745;BMP280;62053;52.002;5.468;2022-07-29T00:21:00;101768.38;;;28.99
73745;BMP280;62053;52.002;5.468;2022-07-29T00:21:52;101770.38;;;28.99
73745;BMP280;62053;52.002;5.468;2022-07-29T00:22:43;101762.16;;;28.99
73745;BMP280;62053;52.002;5.468;2022-07-29T00:23:35;101762.16;;;28.99
73745;BMP280;62053;52.002;5.468;2022-07-29T00:24:27;101766.84;;;28.98
73745;BMP280;62053;52.002;5.468;2022-07-29T00:25:19;101764.88;;;28.99
73745;BMP280;62053;52.002;5.468;2022-07-29T00:26:10;101764.88;;;28.99
73745;BMP280;62053;52.002;5.468;2022-07-29T00:27:02;101768.13;;;28.97
73745;BMP280;62053;52.002;5.468;2022-07-29T00:27:53;101769.34;;;28.96
73745;BMP280;62053;52.002;5.468;2022-07-29T00:28:45;101763.63;;;28.94
73745;BMP280;62053;52.002;5.468;2022-07-29T00:29:36;101769.84;;;28.95
73745;BMP280;62053;52.002;5.468;2022-07-29T00:30:28;101762.84;;;28.94
73745;BMP280;62053;52.002;5.468;2022-07-29T00:31:20;101762.59;;;28.92
73745;BMP280;62053;52.002;5.468;2022-07-29T00:32:12;101765.31;;;28.92
73745;BMP280;62053;52.002;5.468;2022-07-29T00:33:03;101756.28;;;28.86
73745;BMP280;62053;52.002;5.468;2022-07-29T00:33:56;101757.78;;;28.87
73745;BMP280;62053;52.002;5.468;2022-07-29T00:34:48;101753.84;;;28.88
73745;BMP280;62053;52.002;5.468;2022-07-29T00:35:57;101756.28;;;28.86
73745;BMP280;62053;52.002;5.468;2022-07-29T00:36:48;101763.25;;;28.87
73745;BMP280;62053;52.002;5.468;2022-07-29T00:37:40;101748.34;;;28.88
73745;BMP280;62053;52.002;5.468;2022-07-29T00:38:31;101748.34;;;28.88
73745;BMP280;62053;52.002;5.468;2022-07-29T00:39:23;101735.84;;;28.87
73745;BMP280;62053;52.002;5.468;2022-07-29T00:40:14;101751.53;;;28.86
73745;BMP280;62053;52.002;5.468;2022-07-29T00:41:07;101746.06;;;28.86
73745;BMP280;62053;52.002;5.468;2022-07-29T00:41:58;101745.34;;;28.86
73745;BMP280;62053;52.002;5.468;2022-07-29T00:42:51;101742.59;;;28.86
73745;BMP280;62053;52.002;5.468;2022-07-29T00:43:43;101737.09;;;28.86
73745;BMP280;62053;52.002;5.468;2022-07-29T00:44:37;101745.34;;;28.86
73745;BMP280;62053;52.002;5.468;2022-07-29T00:45:28;101743.81;;;28.84
73745;BMP280;62053;52.002;5.468;2022-07-29T00:46:21;101738.09;;;28.82
73745;BMP280;62053;52.002;5.468;2022-07-29T00:47:12;101738.34;;;28.84
73745;BMP280;62053;52.002;5.468;2022-07-29T00:48:05;101727.84;;;28.83
73745;BMP280;62053;52.002;5.468;2022-07-29T00:49:00;101733.34;;;28.83
73745;BMP280;62053;52.002;5.468;2022-07-29T00:49:52;101727.56;;;28.81
73745;BMP280;62053;52.002;5.468;2022-07-29T00:50:43;101735.34;;;28.82
73745;BMP280;62053;52.002;5.468;2022-07-29T00:51:36;101728.34;;;28.81
73745;BMP280;62053;52.002;5.468;2022-07-29T00:52:28;101734.59;;;28.82
73745;BMP280;62053;52.002;5.468;2022-07-29T00:53:21;101730.31;;;28.81
73745;BMP280;62053;52.002;5.468;2022-07-29T00:54:13;101729.56;;;28.80
73745;BMP280;62053;52.002;5.468;2022-07-29T00:55:07;101729.56;;;28.80
73745;BMP280;62053;52.002;5.468;2022-07-29T00:56:01;101726.81;;;28.80
73745;BMP280;62053;52.002;5.468;2022-07-29T00:56:53;101725.34;;;28.79
73745;BMP280;62053;52.002;5.468;2022-07-29T00:57:45;101736.31;;;28.79
73745;BMP280;62053;52.002;5.468;2022-07-29T00:58:38;101728.81;;;28.80
73745;BMP280;62053;52.002;5.468;2022-07-29T00:59:31;101728.81;;;28.80
73745;BMP280;62053;52.002;5.468;2022-07-29T01:00:25;101724.59;;;28.79
73745;BMP280;62053;52.002;5.468;2022-07-29T01:01:18;101726.56;;;28.78
73745;BMP280;62053;52.002;5.468;2022-07-29T01:02:09;101729.31;;;28.78
73745;BMP280;62053;52.002;5.468;2022-07-29T01:03:01;101728.56;;;28.78
73745;BMP280;62053;52.002;5.468;2022-07-29T01:03:53;101723.84;;;28.78
73745;BMP280;62053;52.002;5.468;2022-07-29T01:04:48;101730.53;;;28.77
73745;BMP280;62053;52.002;5.468;2022-07-29T01:05:41;101730.53;;;28.77
73745;BMP280;62053;52.002;5.468;2022-07-29T01:06:34;101731.03;;;28.76
73745;BMP280;62053;52.002;5.468;2022-07-29T01:07:27;101726.78;;;28.75
73745;BMP280;62053;52.002;5.468;2022-07-29T01:08:23;101728.75;;;28.74
73745;BMP280;62053;52.002;5.468;2022-07-29T01:09:15;101721.78;;;28.73
73745;BMP280;62053;52.002;5.468;2022-07-29T01:10:13;101727.25;;;28.73
73745;BMP280;62053;52.002;5.468;2022-07-29T01:11:06;101727.25;;;28.73
73745;BMP280;62053;52.002;5.468;2022-07-29T01:12:00;101725.78;;;28.72
73745;BMP280;62053;52.002;5.468;2022-07-29T01:12:54;101724.25;;;28.71
73745;BMP280;62053;52.002;5.468;2022-07-29T01:13:48;101730.50;;;28.72
73745;BMP280;62053;52.002;5.468;2022-07-29T01:14:40;101735.22;;;28.71
73745;BMP280;62053;52.002;5.468;2022-07-29T01:15:43;101728.19;;;28.70
73745;BMP280;62053;52.002;5.468;2022-07-29T01:16:44;101729.75;;;28.71
73745;BMP280;62053;52.002;5.468;2022-07-29T01:17:44;101733.69;;;28.70
73745;BMP280;62053;52.002;5.468;2022-07-29T01:18:46;101732.97;;;28.70
73745;BMP280;62053;52.002;5.468;2022-07-29T01:19:51;101729.47;;;28.69
73745;BMP280;62053;52.002;5.468;2022-07-29T01:21:15;101718.97;;;28.68
73745;BMP280;62053;52.002;5.468;2022-07-29T01:22:37;101718.97;;;28.68
73745;BMP280;62053;52.002;5.468;2022-07-29T01:24:10;101723.69;;;28.67
73745;BMP280;62053;52.002;5.468;2022-07-29T01:25:32;101716.75;;;28.66
73745;BMP280;62053;52.002;5.468;2022-07-29T01:26:45;101719.94;;;28.65
73745;BMP280;62053;52.002;5.468;2022-07-29T01:27:56;101713.25;;;28.66
73745;BMP280;62053;52.002;5.468;2022-07-29T01:29:03;101719.94;;;28.65
73745;BMP280;62053;52.002;5.468;2022-07-29T01:30:00;101719.94;;;28.65
73745;BMP280;62053;52.002;5.468;2022-07-29T01:30:54;101719.19;;;28.64
73745;BMP280;62053;52.002;5.468;2022-07-29T01:31:54;101724.66;;;28.64
73745;BMP280;62053;52.002;5.468;2022-07-29T01:32:56;101723.19;;;28.63
73745;BMP280;62053;52.002;5.468;2022-07-29T01:33:58;101730.13;;;28.64
73745;BMP280;62053;52.002;5.468;2022-07-29T01:34:58;101734.88;;;28.64
73745;BMP280;62053;52.002;5.468;2022-07-29T01:35:56;101730.63;;;28.63
73745;BMP280;62053;52.002;5.468;2022-07-29T01:36:53;101731.13;;;28.61
73745;BMP280;62053;52.002;5.468;2022-07-29T01:37:57;101735.38;;;28.62
73745;BMP280;62053;52.002;5.468;2022-07-29T01:39:00;101733.84;;;28.61
73745;BMP280;62053;52.002;5.468;2022-07-29T01:39:59;101739.34;;;28.61
73745;BMP280;62053;52.002;5.468;2022-07-29T01:41:01;101740.59;;;28.60
73745;BMP280;62053;52.002;5.468;2022-07-29T01:42:02;101732.38;;;28.60
73745;BMP280;62053;52.002;5.468;2022-07-29T01:43:06;101735.84;;;28.61
73745;BMP280;62053;52.002;5.468;2022-07-29T01:44:12;101739.81;;;28.60
73745;BMP280;62053;52.002;5.468;2022-07-29T01:45:12;101734.34;;;28.60
73745;BMP280;62053;52.002;5.468;2022-07-29T01:46:13;101739.06;;;28.59
73745;BMP280;62053;52.002;5.468;2022-07-29T01:47:14;101741.03;;;28.59
73745;BMP280;62053;52.002;5.468;2022-07-29T01:48:15;101743.78;;;28.59
73745;BMP280;62053;52.002;5.468;2022-07-29T01:49:13;101745.75;;;28.58
73745;BMP280;62053;52.002;5.468;2022-07-29T01:50:12;101755.97;;;28.58
73745;BMP280;62053;52.002;5.468;2022-07-29T01:51:09;101747.03;;;28.57
73745;BMP280;62053;52.002;5.468;2022-07-29T01:52:11;101745.50;;;28.56
73745;BMP280;62053;52.002;5.468;2022-07-29T01:53:09;101749.75;;;28.57
73745;BMP280;62053;52.002;5.468;2022-07-29T01:54:08;101755.72;;;28.56
73745;BMP280;62053;52.002;5.468;2022-07-29T01:55:09;101749.50;;;28.55
73745;BMP280;62053;52.002;5.468;2022-07-29T01:56:06;101749.50;;;28.55
73745;BMP280;62053;52.002;5.468;2022-07-29T01:57:03;101749.50;;;28.55
73745;BMP280;62053;52.002;5.468;2022-07-29T01:58:02;101749.50;;;28.55
73745;BMP280;62053;52.002;5.468;2022-07-29T01:58:56;101753.47;;;28.54
73745;BMP280;62053;52.002;5.468;2022-07-29T01:59:53;101754.69;;;28.53
73745;BMP280;62053;52.002;5.468;2022-07-29T02:00:48;101752.69;;;28.54
73745;BMP280;62053;52.002;5.468;2022-07-29T02:01:44;101765.66;;;28.53
73745;BMP280;62053;52.002;5.468;2022-07-29T02:02:40;101751.94;;;28.53
73745;BMP280;62053;52.002;5.468;2022-07-29T02:03:36;101745.72;;;28.53
73745;BMP280;62053;52.002;5.468;2022-07-29T02:04:32;101750.44;;;28.52
73745;BMP280;62053;52.002;5.468;2022-07-29T02:05:29;101749.69;;;28.52
73745;BMP280;62053;52.002;5.468;2022-07-29T02:06:25;101748.19;;;28.51
73745;BMP280;62053;52.002;5.468;2022-07-29T02:07:23;101746.94;;;28.52
73745;BMP280;62053;52.002;5.468;2022-07-29T02:08:19;101741.97;;;28.50
73745;BMP280;62053;52.002;5.468;2022-07-29T02:09:14;101739.22;;;28.50
73745;BMP280;62053;52.002;5.468;2022-07-29T02:10:09;101742.72;;;28.51
73745;BMP280;62053;52.002;5.468;2022-07-29T02:11:05;101741.22;;;28.50
73745;BMP280;62053;52.002;5.468;2022-07-29T02:12:00;101743.94;;;28.50
73745;BMP280;62053;52.002;5.468;2022-07-29T02:12:57;101734.19;;;28.49
73745;BMP280;62053;52.002;5.468;2022-07-29T02:13:51;101741.69;;;28.48
73745;BMP280;62053;52.002;5.468;2022-07-29T02:14:49;101732.22;;;28.49
73745;BMP280;62053;52.002;5.468;2022-07-29T02:15:44;101733.47;;;28.48
73745;BMP280;62053;52.002;5.468;2022-07-29T02:16:40;101734.69;;;28.47
73745;BMP280;62053;52.002;5.468;2022-07-29T02:17:37;101731.97;;;28.47
73745;BMP280;62053;52.002;5.468;2022-07-29T02:18:36;101729.69;;;28.45
73745;BMP280;62053;52.002;5.468;2022-07-29T02:19:32;101737.91;;;28.45
73745;BMP280;62053;52.002;5.468;2022-07-29T02:20:26;101730.44;;;28.46
73745;BMP280;62053;52.002;5.468;2022-07-29T02:21:23;101728.97;;;28.45
73745;BMP280;62053;52.002;5.468;2022-07-29T02:22:18;101724.97;;;28.46
73745;BMP280;62053;52.002;5.468;2022-07-29T02:23:12;101735.16;;;28.45
73745;BMP280;62053;52.002;5.468;2022-07-29T02:24:09;101728.97;;;28.45
73745;BMP280;62053;52.002;5.468;2022-07-29T02:25:04;101728.97;;;28.45
73745;BMP280;62053;52.002;5.468;2022-07-29T02:25:59;101726.22;;;28.45
73745;BMP280;62053;52.002;5.468;2022-07-29T02:26:53;101732.16;;;28.43
73745;BMP280;62053;52.002;5.468;2022-07-29T02:27:50;101732.16;;;28.43
73745;BMP280;62053;52.002;5.468;2022-07-29T02:28:43;101729.41;;;28.43
73745;BMP280;62053;52.002;5.468;2022-07-29T02:29:39;101730.19;;;28.44
73745;BMP280;62053;52.002;5.468;2022-07-29T02:30:35;101726.69;;;28.43
73745;BMP280;62053;52.002;5.468;2022-07-29T02:31:34;101732.63;;;28.42
73745;BMP280;62053;52.002;5.468;2022-07-29T02:32:28;101723.19;;;28.43
73745;BMP280;62053;52.002;5.468;2022-07-29T02:33:23;101722.38;;;28.37
73745;BMP280;62053;52.002;5.468;2022-07-29T02:34:18;101725.38;;;28.39
73745;BMP280;62053;52.002;5.468;2022-07-29T02:35:13;101719.91;;;28.39
73745;BMP280;62053;52.002;5.468;2022-07-29T02:36:06;101715.19;;;28.39
73745;BMP280;62053;52.002;5.468;2022-07-29T02:36:59;101715.94;;;28.40
73745;BMP280;62053;52.002;5.468;2022-07-29T02:37:53;101710.47;;;28.40
73745;BMP280;62053;52.002;5.468;2022-07-29T02:39:04;101715.19;;;28.39
73745;BMP280;62053;52.002;5.468;2022-07-29T02:40:00;101710.19;;;28.38
73745;BMP280;62053;52.002;5.468;2022-07-29T02:40:53;101707.44;;;28.38
73745;BMP280;62053;52.002;5.468;2022-07-29T02:41:50;101708.22;;;28.38
73745;BMP280;62053;52.002;5.468;2022-07-29T02:42:46;101713.72;;;28.38
73745;BMP280;62053;52.002;5.468;2022-07-29T02:43:42;101707.44;;;28.38
73745;BMP280;62053;52.002;5.468;2022-07-29T02:44:35;101712.16;;;28.37
73745;BMP280;62053;52.002;5.468;2022-07-29T02:45:29;101716.13;;;28.36
73745;BMP280;62053;52.002;5.468;2022-07-29T02:46:28;101720.84;;;28.36
73745;BMP280;62053;52.002;5.468;2022-07-29T02:47:30;101722.38;;;28.37
73745;BMP280;62053;52.002;5.468;2022-07-29T02:48:40;101719.63;;;28.37
73745;BMP280;62053;52.002;5.468;2022-07-29T02:49:46;101713.91;;;28.35
73745;BMP280;62053;52.002;5.468;2022-07-29T02:50:50;101711.16;;;28.35
73745;BMP280;62053;52.002;5.468;2022-07-29T02:51:51;101719.38;;;28.35
73745;BMP280;62053;52.002;5.468;2022-07-29T02:52:53;101716.63;;;28.35
73745;BMP280;62053;52.002;5.468;2022-07-29T02:53:53;101712.38;;;28.34
73745;BMP280;62053;52.002;5.468;2022-07-29T02:54:53;101708.44;;;28.35
73745;BMP280;62053;52.002;5.468;2022-07-29T02:55:55;101714.38;;;28.33
73745;BMP280;62053;52.002;5.468;2022-07-29T02:56:52;101718.63;;;28.34
73745;BMP280;62053;52.002;5.468;2022-07-29T02:57:49;101719.09;;;28.33
73745;BMP280;62053;52.002;5.468;2022-07-29T02:58:52;101716.34;;;28.33
73745;BMP280;62053;52.002;5.468;2022-07-29T02:59:51;101720.31;;;28.32
73745;BMP280;62053;52.002;5.468;2022-07-29T03:00:48;101719.09;;;28.33
73745;BMP280;62053;52.002;5.468;2022-07-29T03:01:43;101721.84;;;28.33
73745;BMP280;62053;52.002;5.468;2022-07-29T03:02:40;101720.31;;;28.32
73745;BMP280;62053;52.002;5.468;2022-07-29T03:03:37;101716.06;;;28.31
73745;BMP280;62053;52.002;5.468;2022-07-29T03:04:32;101718.81;;;28.31
73745;BMP280;62053;52.002;5.468;2022-07-29T03:05:26;101714.84;;;28.32
73745;BMP280;62053;52.002;5.468;2022-07-29T03:06:21;101710.59;;;28.31
73745;BMP280;62053;52.002;5.468;2022-07-29T03:07:19;101705.13;;;28.31
73745;BMP280;62053;52.002;5.468;2022-07-29T03:08:15;101706.34;;;28.30
73745;BMP280;62053;52.002;5.468;2022-07-29T03:09:07;101702.88;;;28.29
73745;BMP280;62053;52.002;5.468;2022-07-29T03:10:02;101697.88;;;28.28
73745;BMP280;62053;52.002;5.468;2022-07-29T03:10:55;101697.88;;;28.28
73745;BMP280;62053;52.002;5.468;2022-07-29T03:11:49;101693.59;;;28.27
73745;BMP280;62053;52.002;5.468;2022-07-29T03:12:42;101692.84;;;28.26
73745;BMP280;62053;52.002;5.468;2022-07-29T03:13:36;101690.88;;;28.27
73745;BMP280;62053;52.002;5.468;2022-07-29T03:14:28;101696.34;;;28.27
73745;BMP280;62053;52.002;5.468;2022-07-29T03:15:22;101689.38;;;28.26
73745;BMP280;62053;52.002;5.468;2022-07-29T03:16:15;101686.66;;;28.26
73745;BMP280;62053;52.002;5.468;2022-07-29T03:17:12;101688.63;;;28.25
73745;BMP280;62053;52.002;5.468;2022-07-29T03:18:05;101683.16;;;28.25
73745;BMP280;62053;52.002;5.468;2022-07-29T03:18:59;101691.38;;;28.25
73745;BMP280;62053;52.002;5.468;2022-07-29T03:19:52;101684.38;;;28.24
73745;BMP280;62053;52.002;5.468;2022-07-29T03:20:45;101694.59;;;28.24
73745;BMP280;62053;52.002;5.468;2022-07-29T03:21:36;101690.38;;;28.23
73745;BMP280;62053;52.002;5.468;2022-07-29T03:22:29;101691.84;;;28.24
73745;BMP280;62053;52.002;5.468;2022-07-29T03:23:22;101693.84;;;28.23
73745;BMP280;62053;52.002;5.468;2022-07-29T03:24:27;101691.09;;;28.23
73745;BMP280;62053;52.002;5.468;2022-07-29T03:25:20;101695.09;;;28.22
73745;BMP280;62053;52.002;5.468;2022-07-29T03:26:13;101691.56;;;28.22
73745;BMP280;62053;52.002;5.468;2022-07-29T03:27:04;101686.09;;;28.22
73745;BMP280;62053;52.002;5.468;2022-07-29T03:27:56;101685.84;;;28.20
73745;BMP280;62053;52.002;5.468;2022-07-29T03:28:48;101690.06;;;28.21
73745;BMP280;62053;52.002;5.468;2022-07-29T03:29:40;101684.56;;;28.21
73745;BMP280;62053;52.002;5.468;2022-07-29T03:30:31;101685.34;;;28.21
73745;BMP280;62053;52.002;5.468;2022-07-29T03:31:23;101680.38;;;28.20
73745;BMP280;62053;52.002;5.468;2022-07-29T03:32:16;101679.09;;;28.21
73745;BMP280;62053;52.002;5.468;2022-07-29T03:33:08;101678.84;;;28.19
73745;BMP280;62053;52.002;5.468;2022-07-29T03:33:59;101677.63;;;28.20
73745;BMP280;62053;52.002;5.468;2022-07-29T03:34:51;101678.09;;;28.18
73745;BMP280;62053;52.002;5.468;2022-07-29T03:35:43;101667.16;;;28.18
73745;BMP280;62053;52.002;5.468;2022-07-29T03:36:35;101671.13;;;28.17
73745;BMP280;62053;52.002;5.468;2022-07-29T03:37:27;101673.09;;;28.17
73745;BMP280;62053;52.002;5.468;2022-07-29T03:38:21;101670.34;;;28.17
73745;BMP280;62053;52.002;5.468;2022-07-29T03:39:20;101664.13;;;28.16
73745;BMP280;62053;52.002;5.468;2022-07-29T03:40:17;101667.63;;;28.17
73745;BMP280;62053;52.002;5.468;2022-07-29T03:41:13;101664.13;;;28.16
73745;BMP280;62053;52.002;5.468;2022-07-29T03:42:07;101663.38;;;28.16
73745;BMP280;62053;52.002;5.468;2022-07-29T03:43:03;101665.34;;;28.15
73745;BMP280;62053;52.002;5.468;2022-07-29T03:43:59;101658.88;;;28.13
73745;BMP280;62053;52.002;5.468;2022-07-29T03:44:54;101663.09;;;28.14
73745;BMP280;62053;52.002;5.468;2022-07-29T03:45:51;101659.63;;;28.13
73745;BMP280;62053;52.002;5.468;2022-07-29T03:46:48;101660.84;;;28.12
73745;BMP280;62053;52.002;5.468;2022-07-29T03:47:49;101662.84;;;28.12
73745;BMP280;62053;52.002;5.468;2022-07-29T03:48:50;101660.09;;;28.12
73745;BMP280;62053;52.002;5.468;2022-07-29T03:49:49;101661.31;;;28.11
73745;BMP280;62053;52.002;5.468;2022-07-29T03:50:44;101664.03;;;28.11
73745;BMP280;62053;52.002;5.468;2022-07-29T03:51:36;101668.78;;;28.10
73745;BMP280;62053;52.002;5.468;2022-07-29T03:52:29;101665.28;;;28.10
73745;BMP280;62053;52.002;5.468;2022-07-29T03:53:21;101663.78;;;28.09
73745;BMP280;62053;52.002;5.468;2022-07-29T03:54:14;101672.00;;;28.09
73745;BMP280;62053;52.002;5.468;2022-07-29T03:55:07;101674.75;;;28.09
73745;BMP280;62053;52.002;5.468;2022-07-29T03:56:02;101680.22;;;28.09
73745;BMP280;62053;52.002;5.468;2022-07-29T03:56:59;101680.72;;;28.07
73745;BMP280;62053;52.002;5.468;2022-07-29T03:57:56;101677.22;;;28.07
73745;BMP280;62053;52.002;5.468;2022-07-29T03:58:50;101681.44;;;28.08
73745;BMP280;62053;52.002;5.468;2022-07-29T03:59:45;101679.22;;;28.06
73745;BMP280;62053;52.002;5.468;2022-07-29T04:00:37;101686.66;;;28.05
73745;BMP280;62053;52.002;5.468;2022-07-29T04:01:33;101681.19;;;28.05
73745;BMP280;62053;52.002;5.468;2022-07-29T04:02:25;101685.88;;;28.05
73745;BMP280;62053;52.002;5.468;2022-07-29T04:03:20;101689.41;;;28.05
73745;BMP280;62053;52.002;5.468;2022-07-29T04:04:11;101685.88;;;28.05
73745;BMP280;62053;52.002;5.468;2022-07-29T04:05:04;101687.84;;;28.04
73745;BMP280;62053;52.002;5.468;2022-07-29T04:06:03;101686.66;;;28.05
73745;BMP280;62053;52.002;5.468;2022-07-29T04:06:57;101683.66;;;28.03
73745;BMP280;62053;52.002;5.468;2022-07-29T04:07:48;101689.13;;;28.03
73745;BMP280;62053;52.002;5.468;2022-07-29T04:08:40;101687.59;;;28.02
73745;BMP280;62053;52.002;5.468;2022-07-29T04:09:32;101682.88;;;28.03
73745;BMP280;62053;52.002;5.468;2022-07-29T04:10:24;101684.13;;;28.02
73745;BMP280;62053;52.002;5.468;2022-07-29T04:11:15;101675.16;;;28.01
73745;BMP280;62053;52.002;5.468;2022-07-29T04:12:08;101691.56;;;28.01
73745;BMP280;62053;52.002;5.468;2022-07-29T04:13:00;101685.34;;;28.01
73745;BMP280;62053;52.002;5.468;2022-07-29T04:13:52;101681.38;;;28.02
73745;BMP280;62053;52.002;5.468;2022-07-29T04:14:43;101682.59;;;28.01
73745;BMP280;62053;52.002;5.468;2022-07-29T04:15:35;101681.09;;;28.00
73745;BMP280;62053;52.002;5.468;2022-07-29T04:16:26;101679.16;;;28.00
73745;BMP280;62053;52.002;5.468;2022-07-29T04:17:18;101679.16;;;28.00
73745;BMP280;62053;52.002;5.468;2022-07-29T04:18:09;101672.13;;;27.99
73745;BMP280;62053;52.002;5.468;2022-07-29T04:19:03;101678.34;;;28.00
73745;BMP280;62053;52.002;5.468;2022-07-29T04:19:54;101665.91;;;27.99
73745;BMP280;62053;52.002;5.468;2022-07-29T04:20:46;101674.88;;;27.99
73745;BMP280;62053;52.002;5.468;2022-07-29T04:21:37;101669.41;;;27.99
73745;BMP280;62053;52.002;5.468;2022-07-29T04:22:30;101661.19;;;27.99
73745;BMP280;62053;52.002;5.468;2022-07-29T04:23:21;101659.69;;;27.98
73745;BMP280;62053;52.002;5.468;2022-07-29T04:24:13;101659.69;;;27.98
73745;BMP280;62053;52.002;5.468;2022-07-29T04:25:05;101659.69;;;27.98
73745;BMP280;62053;52.002;5.468;2022-07-29T04:25:57;101658.19;;;27.97
73745;BMP280;62053;52.002;5.468;2022-07-29T04:26:49;101660.94;;;27.97
73745;BMP280;62053;52.002;5.468;2022-07-29T04:27:41;101652.72;;;27.97
73745;BMP280;62053;52.002;5.468;2022-07-29T04:28:47;101651.22;;;27.96
73745;BMP280;62053;52.002;5.468;2022-07-29T04:29:39;101653.94;;;27.96
73745;BMP280;62053;52.002;5.468;2022-07-29T04:30:31;101653.94;;;27.96
73745;BMP280;62053;52.002;5.468;2022-07-29T04:31:24;101648.94;;;27.95
73745;BMP280;62053;52.002;5.468;2022-07-29T04:32:16;101648.94;;;27.95
73745;BMP280;62053;52.002;5.468;2022-07-29T04:33:08;101654.91;;;27.93
73745;BMP280;62053;52.002;5.468;2022-07-29T04:33:59;101652.38;;;27.90
73745;BMP280;62053;52.002;5.468;2022-07-29T04:34:53;101661.34;;;27.90
73745;BMP280;62053;52.002;5.468;2022-07-29T04:35:44;101657.84;;;27.90
73745;BMP280;62053;52.002;5.468;2022-07-29T04:36:36;101660.09;;;27.91
73745;BMP280;62053;52.002;5.468;2022-07-29T04:37:28;101662.09;;;27.91
73745;BMP280;62053;52.002;5.468;2022-07-29T04:38:20;101669.56;;;27.90
73745;BMP280;62053;52.002;5.468;2022-07-29T04:39:11;101670.31;;;27.91
73745;BMP280;62053;52.002;5.468;2022-07-29T04:40:04;101672.53;;;27.92
73745;BMP280;62053;52.002;5.468;2022-07-29T04:40:56;101669.56;;;27.90
73745;BMP280;62053;52.002;5.468;2022-07-29T04:41:49;101673.03;;;27.91
73745;BMP280;62053;52.002;5.468;2022-07-29T04:42:40;101673.50;;;27.89
73745;BMP280;62053;52.002;5.468;2022-07-29T04:43:33;101679.00;;;27.89
73745;BMP280;62053;52.002;5.468;2022-07-29T04:44:24;101678.19;;;27.89
73745;BMP280;62053;52.002;5.468;2022-07-29T04:45:16;101675.22;;;27.87
73745;BMP280;62053;52.002;5.468;2022-07-29T04:46:07;101677.19;;;27.86
73745;BMP280;62053;52.002;5.468;2022-07-29T04:46:59;101669.00;;;27.86
73745;BMP280;62053;52.002;5.468;2022-07-29T04:47:50;101676.44;;;27.86
73745;BMP280;62053;52.002;5.468;2022-07-29T04:48:45;101679.19;;;27.86
73745;BMP280;62053;52.002;5.468;2022-07-29T04:49:37;101676.44;;;27.86
73745;BMP280;62053;52.002;5.468;2022-07-29T04:50:31;101672.94;;;27.85
73745;BMP280;62053;52.002;5.468;2022-07-29T04:51:22;101679.69;;;27.84
73745;BMP280;62053;52.002;5.468;2022-07-29T04:52:15;101671.47;;;27.84
73745;BMP280;62053;52.002;5.468;2022-07-29T04:53:06;101672.66;;;27.83
73745;BMP280;62053;52.002;5.468;2022-07-29T04:53:58;101671.47;;;27.84
73745;BMP280;62053;52.002;5.468;2022-07-29T04:54:49;101672.66;;;27.83
73745;BMP280;62053;52.002;5.468;2022-07-29T04:55:42;101669.16;;;27.83
73745;BMP280;62053;52.002;5.468;2022-07-29T04:56:33;101669.94;;;27.83
73745;BMP280;62053;52.002;5.468;2022-07-29T04:57:25;101673.91;;;27.82
73745;BMP280;62053;52.002;5.468;2022-07-29T04:58:16;101665.69;;;27.82
73745;BMP280;62053;52.002;5.468;2022-07-29T04:59:08;101669.66;;;27.81
73745;BMP280;62053;52.002;5.468;2022-07-29T05:00:00;101678.59;;;27.82
73745;BMP280;62053;52.002;5.468;2022-07-29T05:00:52;101673.63;;;27.80
73745;BMP280;62053;52.002;5.468;2022-07-29T05:01:43;101671.66;;;27.81
73745;BMP280;62053;52.002;5.468;2022-07-29T05:02:35;101682.59;;;27.81
73745;BMP280;62053;52.002;5.468;2022-07-29T05:03:27;101679.88;;;27.81
73745;BMP280;62053;52.002;5.468;2022-07-29T05:04:19;101682.59;;;27.81
73745;BMP280;62053;52.002;5.468;2022-07-29T05:05:10;101685.81;;;27.79
73745;BMP280;62053;52.002;5.468;2022-07-29T05:06:03;101685.81;;;27.79
73745;BMP280;62053;52.002;5.468;2022-07-29T05:06:54;101691.28;;;27.79
73745;BMP280;62053;52.002;5.468;2022-07-29T05:07:46;101695.25;;;27.78
73745;BMP280;62053;52.002;5.468;2022-07-29T05:08:38;101700.72;;;27.78
73745;BMP280;62053;52.002;5.468;2022-07-29T05:09:30;101707.41;;;27.77
73745;BMP280;62053;52.002;5.468;2022-07-29T05:10:22;101722.59;;;27.78
73745;BMP280;62053;52.002;5.468;2022-07-29T05:11:15;101708.63;;;27.76
73745;BMP280;62053;52.002;5.468;2022-07-29T05:12:07;101712.13;;;27.77